This is the latest recevied weather packets stored in our database for station/object CYQR. If no packets are shown the sender has not sent any weather packets the latest 1 day(s).
| Time | Temp. | Humidity | Pressure | Rain* | Wind** | Luminosity | Snow |
|---|---|---|---|---|---|---|---|
| 1836274568 | 13.89° C | 76% | 1015.9 hPa | - | 4.47 m/s, 130° | - | - |
| 1836274419 | 13.89° C | 76% | 1015.9 hPa | - | 4.47 m/s, 130° | - | - |
| 1836273967 | 13.89° C | 76% | 1015.9 hPa | - | 4.47 m/s, 130° | - | - |
| 1778034796 | 1.67° C | 55% | 1017.3 hPa | - | 4.47 m/s, 20° | - | - |
| 1778034199 | 2.78° C | 51% | 1017.3 hPa | - | 7.15 m/s, 10° | - | - |
| 1778033599 | 2.78° C | 51% | 1017.3 hPa | - | 7.15 m/s, 10° | - | - |
| 1778032999 | 5° C | 44% | 1016.6 hPa | - | 8.49 m/s, 360° | - | - |
| 1778032399 | 5° C | 44% | 1016.6 hPa | - | 8.49 m/s, 360° | - | - |
| 1778031798 | 5° C | 44% | 1016.6 hPa | - | 8.49 m/s, 360° | - | - |
| 1778031199 | 5° C | 44% | 1016.6 hPa | - | 8.49 m/s, 360° | - | - |
| 1778030597 | 5° C | 44% | 1016.6 hPa | - | 8.49 m/s, 360° | - | - |
| 1778029999 | 5° C | 44% | 1016.6 hPa | - | 8.49 m/s, 360° | - | - |
| 1778029397 | 5.56° C | 41% | 1016.3 hPa | - | 7.6 m/s, 10° | - | - |
| 1778028800 | 5.56° C | 41% | 1016.3 hPa | - | 7.6 m/s, 10° | - | - |
| 1778028198 | 5.56° C | 41% | 1016.3 hPa | - | 7.6 m/s, 10° | - | - |
| 1778027597 | 5.56° C | 41% | 1016.3 hPa | - | 7.6 m/s, 10° | - | - |
| 1778026997 | 5.56° C | 41% | 1016.3 hPa | - | 7.6 m/s, 10° | - | - |
| 1778026403 | 5.56° C | 41% | 1016.3 hPa | - | 7.6 m/s, 10° | - | - |
| 1778025800 | 7.78° C | 33% | 1015.9 hPa | - | 10.28 m/s, 360° | - | - |
| 1778025201 | 7.78° C | 33% | 1015.9 hPa | - | 10.28 m/s, 360° | - | - |
| 1778024596 | 7.78° C | 33% | 1015.9 hPa | - | 10.28 m/s, 360° | - | - |
| 1778024000 | 7.78° C | 33% | 1015.9 hPa | - | 10.28 m/s, 360° | - | - |
| 1778023401 | 7.78° C | 33% | 1015.9 hPa | - | 10.28 m/s, 360° | - | - |
| 1778022801 | 7.78° C | 33% | 1015.9 hPa | - | 10.28 m/s, 360° | - | - |
| 1778022318 | 7.78° C | 31% | 1010.2 hPa | - | 8.05 m/s, 340° | - | - |
* Rain since midnight (hover to see other rain measurements)
** Current wind speed in m/s (hover to see current wind gust speed)